Main page
METAR-TAF:

METAR-TAF

Airports :

Keetmanshoop Airport

Keetmanshoop, Namibia

latitude: 26-32S, longitude: 018-07E, elevation: 1067 m

METAR: missing

Time: 18:06 (17:06 UTC)

Forecast

The report was made 7 hours and 6 minutes ago, at 10:00 UTC
Forecast valid from 19 at 12 UTC to 20 at 12 UTC
Wind 15 kt from the North/Northeast
Visibility 10 km or more
no clouds below 1500 m and no cumulonimbus
Becoming
from 19 at 16 UTC to 19 at 18 UTC
Wind 10 kt from the North

TAF: FYKT 191000Z 1912/2012 03015KT CAVOK BECMG 1916/1918 36010KT

Weather observations and forecasts of more than 4000 airports (METAR and TAF reports).

The available stations are represented by yellow and red dots on the map.

Hover mouse over dot to see the name of the station.

Then click to see weather observations and forecasts.

To change the map : click on the green buttons with a black cross to zoom in, on the green button with a dash to zoom out, or on the green arrows for adjacent maps.


METAR-TAF: